createdAt,value
2023-03-21T00:00:24.488Z,9.00
2023-03-21T00:02:51.347Z,10.70
2023-03-21T00:05:18.072Z,9.10
2023-03-21T00:07:44.682Z,9.00
2023-03-21T00:10:16.496Z,9.00
2023-03-21T00:12:44.916Z,9.00
2023-03-21T00:15:12.876Z,8.90
2023-03-21T00:17:39.746Z,8.90
2023-03-21T00:20:15.036Z,8.90
2023-03-21T00:22:41.873Z,9.00
2023-03-21T00:25:10.586Z,8.90
2023-03-21T00:27:56.874Z,8.90
2023-03-21T00:30:24.278Z,8.90
2023-03-21T00:32:56.450Z,8.90
2023-03-21T00:36:12.575Z,8.80
2023-03-21T00:38:10.746Z,8.80
2023-03-21T00:40:43.735Z,8.90
2023-03-21T00:43:17.512Z,8.90
2023-03-21T00:45:45.290Z,8.90
2023-03-21T00:48:12.792Z,8.90
2023-03-21T00:50:40.127Z,8.90
2023-03-21T00:53:07.342Z,8.90
2023-03-21T00:55:33.973Z,8.90
2023-03-21T00:58:02.492Z,8.90
2023-03-21T01:00:30.095Z,8.90
2023-03-21T01:03:04.494Z,8.90
2023-03-21T01:05:57.233Z,8.90
2023-03-21T01:08:30.994Z,8.80
2023-03-21T01:11:04.429Z,8.80
2023-03-21T01:13:33.080Z,8.90
2023-03-21T01:16:02.046Z,8.80
2023-03-21T01:18:30.281Z,8.80
2023-03-21T01:20:59.850Z,8.80
2023-03-21T01:23:28.865Z,8.70
2023-03-21T01:25:56.623Z,8.70
2023-03-21T01:28:25.807Z,8.70
2023-03-21T01:30:52.689Z,8.70
2023-03-21T01:33:20.859Z,8.70
2023-03-21T01:35:55.185Z,8.60
2023-03-21T01:38:27.103Z,8.70
2023-03-21T01:40:53.918Z,8.70
2023-03-21T01:43:25.676Z,8.70
2023-03-21T01:46:22.421Z,8.60
2023-03-21T01:48:54.871Z,8.60
2023-03-21T01:51:22.339Z,8.60
2023-03-21T01:53:49.215Z,8.60
2023-03-21T01:56:32.990Z,8.60
2023-03-21T01:59:08.018Z,8.60
2023-03-21T02:04:38.167Z,8.50
2023-03-21T02:07:10.162Z,8.50
2023-03-21T02:09:40.189Z,8.60
2023-03-21T02:12:09.245Z,8.50
2023-03-21T02:14:37.690Z,8.50
2023-03-21T02:17:27.230Z,8.50
2023-03-21T02:20:14.984Z,8.50
2023-03-21T02:23:31.006Z,8.60
2023-03-21T02:26:16.351Z,8.50
2023-03-21T02:28:47.318Z,8.50
2023-03-21T02:31:32.306Z,8.50
2023-03-21T02:34:42.493Z,8.40
2023-03-21T02:37:37.634Z,8.40
2023-03-21T02:40:23.389Z,8.40
2023-03-21T02:43:14.164Z,8.40
2023-03-21T02:45:57.970Z,8.40
2023-03-21T02:48:51.063Z,8.30
2023-03-21T02:51:21.867Z,8.30
2023-03-21T02:54:16.226Z,8.30
2023-03-21T02:56:41.348Z,8.20
2023-03-21T02:59:08.765Z,8.20
2023-03-21T03:01:35.726Z,8.10
2023-03-21T03:04:03.023Z,8.20
2023-03-21T03:06:37.957Z,8.20
2023-03-21T03:09:14.615Z,8.10
2023-03-21T03:11:43.940Z,8.10
2023-03-21T03:14:44.144Z,8.20
2023-03-21T03:17:23.523Z,8.20
2023-03-21T03:20:17.501Z,8.10
2023-03-21T03:22:51.860Z,8.10
2023-03-21T03:25:36.011Z,8.10
2023-03-21T03:28:08.980Z,8.10
2023-03-21T03:30:44.717Z,8.20
2023-03-21T03:33:17.875Z,8.10
2023-03-21T03:35:55.849Z,8.00
2023-03-21T03:38:29.923Z,8.00
2023-03-21T03:41:01.739Z,8.00
2023-03-21T03:43:40.888Z,8.00
2023-03-21T03:46:21.973Z,8.00
2023-03-21T03:48:54.705Z,8.00
2023-03-21T03:51:33.670Z,8.00
2023-03-21T03:54:06.425Z,8.00
2023-03-21T03:56:33.992Z,7.90
2023-03-21T03:59:04.359Z,7.90
2023-03-21T04:01:31.029Z,7.90
2023-03-21T04:04:11.938Z,7.90
2023-03-21T04:06:39.382Z,7.90
2023-03-21T04:09:19.304Z,7.80
2023-03-21T04:11:47.679Z,7.80
2023-03-21T04:14:14.348Z,7.80
2023-03-21T04:16:40.957Z,7.90
2023-03-21T04:19:07.611Z,7.90
2023-03-21T04:21:34.250Z,7.90
2023-03-21T04:24:01.268Z,7.90
2023-03-21T04:26:32.893Z,7.90
2023-03-21T04:29:00.821Z,8.00
2023-03-21T04:31:28.529Z,8.00
2023-03-21T04:33:55.844Z,8.00
2023-03-21T04:36:27.711Z,8.30
2023-03-21T04:38:54.993Z,8.10
2023-03-21T04:41:21.584Z,8.10
2023-03-21T04:43:48.314Z,8.00
2023-03-21T04:46:15.440Z,8.00
2023-03-21T04:48:42.115Z,8.10
2023-03-21T04:51:08.767Z,8.00
2023-03-21T04:53:35.583Z,8.00
2023-03-21T04:56:02.144Z,7.60
2023-03-21T04:58:28.719Z,7.80
2023-03-21T05:00:57.302Z,7.90
2023-03-21T05:03:24.832Z,7.80
2023-03-21T05:05:51.486Z,7.80
2023-03-21T05:08:18.034Z,7.80
2023-03-21T05:10:44.652Z,7.60
2023-03-21T05:13:11.224Z,7.70
2023-03-21T05:15:38.219Z,7.70
2023-03-21T05:18:11.418Z,7.70
2023-03-21T05:20:42.741Z,7.80
2023-03-21T05:23:10.890Z,7.70
2023-03-21T05:25:39.039Z,7.70
2023-03-21T05:28:07.148Z,7.70
2023-03-21T05:30:34.218Z,7.80
2023-03-21T05:33:01.012Z,7.90
2023-03-21T05:35:27.992Z,8.00
2023-03-21T05:37:54.767Z,9.20
2023-03-21T05:40:21.539Z,8.00
2023-03-21T05:42:48.653Z,7.90
2023-03-21T05:45:15.989Z,8.00
2023-03-21T05:47:42.618Z,8.10
2023-03-21T05:50:11.133Z,8.00
2023-03-21T05:52:37.699Z,8.00
2023-03-21T05:55:05.354Z,7.80
2023-03-21T05:57:35.004Z,7.90
2023-03-21T06:00:01.980Z,7.90
2023-03-21T06:02:28.605Z,8.00
2023-03-21T06:04:56.554Z,8.10
2023-03-21T06:07:23.861Z,8.10
2023-03-21T06:09:50.458Z,8.10
2023-03-21T06:12:16.994Z,8.00
2023-03-21T06:14:43.552Z,8.00
2023-03-21T06:17:10.162Z,8.00
2023-03-21T06:19:36.819Z,8.20
2023-03-21T06:22:03.650Z,8.30
2023-03-21T06:24:30.511Z,8.20
2023-03-21T06:26:57.184Z,8.20
2023-03-21T06:29:23.864Z,8.30
2023-03-21T06:31:50.633Z,8.50
2023-03-21T06:34:17.263Z,8.50
2023-03-21T06:36:44.696Z,8.60
2023-03-21T06:39:11.353Z,8.60
2023-03-21T06:41:38.016Z,8.60
2023-03-21T06:44:04.949Z,8.70
2023-03-21T06:46:31.613Z,7.90
2023-03-21T06:48:58.252Z,8.30
2023-03-21T06:51:24.822Z,8.40
2023-03-21T06:53:51.405Z,8.50
2023-03-21T06:56:18.017Z,8.60
2023-03-21T06:58:44.564Z,8.30
2023-03-21T07:01:11.159Z,8.60
2023-03-21T07:03:37.914Z,8.80
2023-03-21T07:06:11.650Z,8.80
2023-03-21T07:08:39.706Z,8.70
2023-03-21T07:11:06.979Z,8.80
2023-03-21T07:13:33.675Z,8.80
2023-03-21T07:16:00.619Z,8.70
2023-03-21T07:18:27.587Z,8.70
2023-03-21T07:20:54.198Z,8.90
2023-03-21T07:23:23.064Z,8.90
2023-03-21T07:25:51.394Z,8.90
2023-03-21T07:28:19.416Z,8.80
2023-03-21T07:30:55.893Z,8.80
2023-03-21T07:33:23.647Z,9.30
2023-03-21T07:35:51.657Z,8.60
2023-03-21T07:38:19.276Z,8.80
2023-03-21T07:40:47.946Z,8.90
2023-03-21T07:43:15.505Z,8.80
2023-03-21T07:45:42.660Z,8.90
2023-03-21T07:48:10.898Z,8.90
2023-03-21T07:50:37.626Z,8.90
2023-03-21T07:53:04.603Z,8.80
2023-03-21T07:55:34.855Z,9.20
2023-03-21T07:58:03.198Z,8.90
2023-03-21T08:00:30.412Z,8.90
2023-03-21T08:02:59.039Z,9.00
2023-03-21T08:05:30.085Z,9.00
2023-03-21T08:07:57.357Z,9.00
2023-03-21T08:10:24.393Z,8.70
2023-03-21T08:12:51.012Z,9.00
2023-03-21T08:15:17.775Z,9.00
2023-03-21T08:17:45.574Z,9.00
2023-03-21T08:20:18.071Z,9.10
2023-03-21T08:22:44.727Z,9.20
2023-03-21T08:25:13.883Z,9.10
2023-03-21T08:27:42.114Z,9.10
2023-03-21T08:30:10.869Z,9.20
2023-03-21T08:32:38.697Z,9.30
2023-03-21T08:35:10.060Z,9.30
2023-03-21T08:37:37.668Z,9.20
2023-03-21T08:40:11.395Z,9.10
2023-03-21T08:42:39.069Z,9.10
2023-03-21T08:45:06.702Z,9.10
2023-03-21T08:47:33.451Z,9.10
2023-03-21T08:50:00.245Z,9.30
2023-03-21T08:52:27.634Z,9.50
2023-03-21T08:54:54.591Z,9.40
2023-03-21T08:57:21.330Z,9.60
2023-03-21T08:59:47.991Z,9.40
2023-03-21T09:02:16.140Z,9.50
2023-03-21T09:04:44.704Z,9.70
2023-03-21T09:07:14.241Z,9.60
2023-03-21T09:09:41.668Z,9.60
2023-03-21T09:12:08.661Z,9.60
2023-03-21T09:14:35.472Z,9.50
2023-03-21T09:17:02.357Z,9.50
2023-03-21T09:19:30.029Z,9.50
2023-03-21T09:21:57.565Z,9.50
2023-03-21T09:24:24.251Z,9.60
2023-03-21T09:26:51.714Z,9.50
2023-03-21T09:29:23.153Z,9.60
2023-03-21T09:31:49.720Z,9.60
2023-03-21T09:34:16.359Z,9.60
2023-03-21T09:36:44.256Z,9.60
2023-03-21T09:39:11.941Z,9.70
2023-03-21T09:41:55.475Z,9.80
2023-03-21T09:44:34.371Z,9.80
2023-03-21T09:47:15.225Z,10.30
2023-03-21T09:49:45.521Z,10.00
2023-03-21T09:52:24.376Z,10.10
2023-03-21T09:54:52.167Z,10.20
2023-03-21T09:57:47.146Z,10.30
2023-03-21T10:00:21.797Z,10.40
2023-03-21T10:02:51.738Z,10.20
2023-03-21T10:05:25.750Z,10.20
2023-03-21T10:08:15.071Z,10.30
2023-03-21T10:10:54.399Z,10.30
2023-03-21T10:13:28.872Z,10.30
2023-03-21T10:16:14.005Z,10.30
2023-03-21T10:18:42.801Z,10.30
2023-03-21T10:21:43.071Z,10.30
2023-03-21T10:24:06.337Z,10.20
2023-03-21T10:26:33.172Z,10.20
2023-03-21T10:29:03.201Z,10.20
2023-03-21T10:31:31.198Z,10.20
2023-03-21T10:34:02.467Z,10.20
2023-03-21T10:36:31.931Z,10.30
2023-03-21T10:39:20.881Z,10.40
2023-03-21T10:41:47.527Z,10.60
2023-03-21T10:44:17.750Z,10.70
2023-03-21T10:46:57.136Z,10.70
2023-03-21T10:49:25.471Z,10.70
2023-03-21T10:51:56.578Z,10.90
2023-03-21T10:54:30.960Z,11.00
2023-03-21T10:57:11.880Z,11.10
2023-03-21T10:59:45.568Z,11.00
2023-03-21T11:02:19.852Z,9.80
2023-03-21T11:04:46.936Z,10.90
2023-03-21T11:07:15.353Z,10.90
2023-03-21T11:09:57.520Z,11.00
2023-03-21T11:12:37.552Z,11.00
2023-03-21T11:15:33.498Z,11.00
2023-03-21T11:18:12.892Z,11.00
2023-03-21T11:20:48.321Z,11.00
2023-03-21T11:23:15.228Z,11.00
2023-03-21T11:25:42.732Z,10.90
2023-03-21T11:28:15.854Z,10.90
2023-03-21T11:30:57.211Z,11.00
2023-03-21T11:33:28.369Z,11.00
2023-03-21T11:36:04.381Z,11.00
2023-03-21T11:38:39.662Z,10.90
2023-03-21T11:41:06.977Z,10.90
2023-03-21T11:43:39.395Z,11.00
2023-03-21T11:46:09.459Z,11.00
2023-03-21T11:48:44.105Z,10.90
2023-03-21T11:51:43.499Z,11.00
2023-03-21T11:54:20.575Z,10.90
2023-03-21T11:56:51.046Z,11.40
2023-03-21T12:00:13.205Z,11.40
2023-03-21T12:03:18.569Z,11.50
2023-03-21T12:06:01.220Z,11.60
2023-03-21T12:08:43.720Z,11.60
2023-03-21T12:11:37.107Z,11.50
2023-03-21T12:14:18.130Z,11.70
2023-03-21T12:17:17.823Z,11.80
2023-03-21T12:20:22.326Z,11.90
2023-03-21T12:23:03.704Z,12.00
2023-03-21T12:25:56.312Z,12.20
2023-03-21T12:28:56.852Z,12.30
2023-03-21T12:31:36.023Z,12.40
2023-03-21T12:34:30.960Z,12.50
2023-03-21T12:37:32.420Z,12.50
2023-03-21T12:40:35.389Z,12.50
2023-03-21T12:43:34.280Z,12.50
2023-03-21T12:46:34.710Z,12.50
2023-03-21T12:49:19.561Z,12.40
2023-03-21T12:51:55.583Z,12.40
2023-03-21T12:54:32.094Z,12.20
2023-03-21T12:57:19.102Z,12.20
2023-03-21T13:00:11.848Z,12.10
2023-03-21T13:03:03.669Z,12.20
2023-03-21T13:05:35.825Z,12.10
2023-03-21T13:08:18.216Z,12.00
2023-03-21T13:10:46.332Z,12.10
2023-03-21T13:13:29.367Z,12.40
2023-03-21T13:16:20.584Z,12.50
2023-03-21T13:19:22.402Z,12.50
2023-03-21T13:21:51.997Z,13.00
2023-03-21T13:24:48.475Z,12.50
2023-03-21T13:27:33.713Z,12.40
2023-03-21T13:30:06.544Z,12.30
2023-03-21T13:32:37.708Z,12.30
2023-03-21T13:35:15.080Z,12.10
2023-03-21T13:37:52.628Z,12.50
2023-03-21T13:40:38.315Z,12.50
2023-03-21T13:43:05.098Z,12.50
2023-03-21T13:45:33.127Z,12.40
2023-03-21T13:48:04.340Z,12.30
2023-03-21T13:51:00.802Z,12.30
2023-03-21T13:53:39.245Z,12.30
2023-03-21T13:56:20.998Z,12.10
2023-03-21T13:58:47.550Z,12.10
2023-03-21T14:01:39.396Z,12.10
2023-03-21T14:04:24.024Z,12.10
2023-03-21T14:06:58.929Z,12.00
2023-03-21T14:09:37.176Z,11.90
2023-03-21T14:12:07.891Z,12.00
2023-03-21T14:14:41.257Z,12.20
2023-03-21T14:17:22.219Z,12.20
2023-03-21T14:19:55.909Z,12.30
2023-03-21T14:22:22.912Z,12.20
2023-03-21T14:24:56.410Z,12.10
2023-03-21T14:27:25.722Z,12.00
2023-03-21T14:29:53.332Z,12.10
2023-03-21T14:32:24.130Z,12.20
2023-03-21T14:34:50.995Z,12.10
2023-03-21T14:37:47.661Z,12.20
2023-03-21T14:40:22.229Z,12.20
2023-03-21T14:42:50.250Z,12.30
2023-03-21T14:45:21.049Z,12.40
2023-03-21T14:48:04.442Z,12.50
2023-03-21T14:50:46.631Z,12.50
2023-03-21T14:53:35.857Z,12.40
2023-03-21T14:56:23.587Z,12.50
2023-03-21T14:58:50.484Z,12.50
2023-03-21T15:01:34.531Z,12.70
2023-03-21T15:04:05.834Z,12.60
2023-03-21T15:06:32.889Z,12.70
2023-03-21T15:09:02.289Z,12.60
2023-03-21T15:11:40.057Z,12.50
2023-03-21T15:14:11.765Z,12.50
2023-03-21T15:16:39.508Z,12.60
2023-03-21T15:19:07.138Z,12.50
2023-03-21T15:21:48.191Z,12.50
2023-03-21T15:24:36.186Z,12.50
2023-03-21T15:27:08.618Z,12.40
2023-03-21T15:29:36.961Z,12.40
2023-03-21T15:32:06.808Z,12.40
2023-03-21T15:34:33.719Z,12.40
2023-03-21T15:37:13.239Z,12.40
2023-03-21T15:39:40.106Z,12.60
2023-03-21T15:42:31.944Z,12.40
2023-03-21T15:45:02.312Z,12.30
2023-03-21T15:47:48.338Z,12.40
2023-03-21T15:50:24.171Z,12.40
2023-03-21T15:52:52.608Z,12.40
2023-03-21T15:55:27.912Z,12.50
2023-03-21T15:58:09.718Z,12.40
2023-03-21T16:00:40.996Z,12.40
2023-03-21T16:03:16.930Z,12.40
2023-03-21T16:06:00.805Z,12.40
2023-03-21T16:08:28.949Z,12.40
2023-03-21T16:11:15.620Z,12.40
2023-03-21T16:13:42.219Z,12.40
2023-03-21T16:16:23.632Z,12.40
2023-03-21T16:18:51.644Z,12.50
2023-03-21T16:21:21.358Z,12.50
2023-03-21T16:23:48.610Z,12.50
2023-03-21T16:26:18.389Z,12.40
2023-03-21T16:28:45.938Z,12.40
2023-03-21T16:31:19.636Z,12.40
2023-03-21T16:33:47.382Z,12.40
2023-03-21T16:36:17.818Z,12.40
2023-03-21T16:38:52.689Z,12.40
2023-03-21T16:41:19.962Z,12.40
2023-03-21T16:43:46.538Z,12.40
2023-03-21T16:46:23.545Z,12.40
2023-03-21T16:48:52.900Z,12.40
2023-03-21T16:51:41.218Z,12.30
2023-03-21T16:54:07.805Z,12.20
2023-03-21T16:56:41.756Z,12.30
2023-03-21T16:59:12.171Z,12.10
2023-03-21T17:01:41.112Z,12.20
2023-03-21T17:04:08.986Z,12.20
2023-03-21T17:06:44.655Z,12.20
2023-03-21T17:09:13.638Z,12.30
2023-03-21T17:11:41.508Z,12.20
2023-03-21T17:14:09.839Z,12.30
2023-03-21T17:16:37.014Z,12.30
2023-03-21T17:19:12.064Z,12.20
2023-03-21T17:21:38.621Z,12.20
2023-03-21T17:24:05.367Z,12.20
2023-03-21T17:26:32.219Z,12.20
2023-03-21T17:28:59.742Z,12.20
2023-03-21T17:31:30.536Z,12.10
2023-03-21T17:33:57.091Z,12.10
2023-03-21T17:36:35.461Z,12.10
2023-03-21T17:39:04.327Z,12.10
2023-03-21T17:41:30.899Z,12.10
2023-03-21T17:43:57.532Z,12.20
2023-03-21T17:46:27.224Z,12.20
2023-03-21T17:48:53.953Z,12.20
2023-03-21T17:51:22.986Z,12.30
2023-03-21T17:53:53.308Z,12.20
2023-03-21T17:56:30.715Z,12.20
2023-03-21T17:59:07.174Z,12.10
2023-03-21T18:01:35.405Z,12.00
2023-03-21T18:04:04.855Z,12.10
2023-03-21T18:06:33.963Z,12.10
2023-03-21T18:09:04.266Z,12.10
2023-03-21T18:11:30.893Z,12.10
2023-03-21T18:14:13.702Z,12.20
2023-03-21T18:16:42.424Z,12.10
2023-03-21T18:19:12.499Z,12.10
2023-03-21T18:21:40.660Z,12.90
2023-03-21T18:24:07.548Z,12.10
2023-03-21T18:26:34.286Z,12.10
2023-03-21T18:30:03.800Z,12.10
2023-03-21T18:32:04.538Z,12.10
2023-03-21T18:34:32.879Z,12.10
2023-03-21T18:36:59.607Z,12.10
2023-03-21T18:39:26.311Z,12.20
2023-03-21T18:41:57.847Z,12.20
2023-03-21T18:44:25.633Z,12.10
2023-03-21T18:46:52.517Z,12.10
2023-03-21T18:52:08.288Z,12.10
2023-03-21T18:54:36.519Z,12.10
2023-03-21T18:59:52.201Z,12.00
2023-03-21T19:02:19.089Z,12.00
2023-03-21T19:04:46.411Z,11.90
2023-03-21T19:07:13.146Z,11.90
2023-03-21T19:10:01.396Z,12.00
2023-03-21T19:12:27.206Z,12.00
2023-03-21T19:14:54.308Z,12.00
2023-03-21T19:20:08.551Z,11.70
2023-03-21T19:22:35.143Z,12.00
2023-03-21T19:25:01.760Z,11.90
2023-03-21T19:27:28.411Z,11.90
2023-03-21T19:30:10.821Z,11.80
2023-03-21T19:32:40.758Z,11.90
2023-03-21T19:35:07.819Z,11.80
2023-03-21T19:37:36.214Z,11.80
2023-03-21T19:40:05.268Z,11.90
2023-03-21T19:42:32.367Z,11.90
2023-03-21T19:44:59.070Z,11.90
2023-03-21T19:47:26.218Z,11.90
2023-03-21T19:52:40.697Z,11.70
2023-03-21T19:55:08.063Z,11.70
2023-03-21T19:57:35.050Z,11.70
2023-03-21T20:00:01.931Z,11.70
2023-03-21T20:02:36.956Z,11.60
2023-03-21T20:05:07.685Z,11.50
2023-03-21T20:07:34.527Z,11.50
2023-03-21T20:10:01.349Z,11.50
2023-03-21T20:12:28.560Z,11.50
2023-03-21T20:15:07.044Z,11.40
2023-03-21T20:17:36.100Z,11.50
2023-03-21T20:20:13.611Z,11.20
2023-03-21T20:25:28.339Z,11.40
2023-03-21T20:28:12.737Z,11.40
2023-03-21T20:30:53.879Z,11.10
2023-03-21T20:33:20.644Z,11.20
2023-03-21T20:38:36.633Z,11.10
2023-03-21T20:41:05.670Z,11.20
2023-03-21T20:46:19.970Z,11.20
2023-03-21T20:48:48.796Z,11.20
2023-03-21T20:52:14.765Z,11.20
2023-03-21T20:54:04.143Z,11.10
2023-03-21T20:56:30.973Z,11.20
2023-03-21T20:59:12.229Z,11.10
2023-03-21T21:01:43.070Z,11.10
2023-03-21T21:04:10.219Z,11.00
2023-03-21T21:06:36.908Z,10.80
2023-03-21T21:09:04.082Z,10.90
2023-03-21T21:14:17.634Z,10.80
2023-03-21T21:16:45.024Z,10.80
2023-03-21T21:19:11.650Z,10.80
2023-03-21T21:21:38.581Z,10.70
2023-03-21T21:24:07.572Z,10.70
2023-03-21T21:26:34.592Z,10.70
2023-03-21T21:29:01.689Z,10.80
2023-03-21T21:31:28.558Z,10.90
2023-03-21T21:33:55.342Z,10.90
2023-03-21T21:36:22.711Z,10.90
2023-03-21T21:38:49.708Z,10.80
2023-03-21T21:41:19.288Z,10.70
2023-03-21T21:43:47.030Z,10.70
2023-03-21T21:46:15.138Z,10.70
2023-03-21T21:48:42.506Z,10.80
2023-03-21T21:51:09.804Z,10.90
2023-03-21T21:53:40.888Z,10.90
2023-03-21T21:56:09.524Z,10.90
2023-03-21T21:58:38.915Z,10.90
2023-03-21T22:01:07.058Z,10.80
2023-03-21T22:03:40.877Z,10.70
2023-03-21T22:06:09.500Z,10.80
2023-03-21T22:08:36.339Z,10.90
2023-03-21T22:11:03.677Z,10.80
2023-03-21T22:13:30.242Z,10.70
2023-03-21T22:15:56.898Z,10.60
2023-03-21T22:18:23.500Z,10.60
2023-03-21T22:20:50.423Z,10.60
2023-03-21T22:23:19.275Z,10.50
2023-03-21T22:25:51.253Z,10.50
2023-03-21T22:28:17.897Z,10.60
2023-03-21T22:30:44.507Z,10.70
2023-03-21T22:33:11.054Z,10.80
2023-03-21T22:35:37.883Z,9.80
2023-03-21T22:38:04.536Z,10.90
2023-03-21T22:40:31.127Z,10.90
2023-03-21T22:42:57.687Z,10.50
2023-03-21T22:45:24.237Z,10.70
2023-03-21T22:47:51.253Z,10.60
2023-03-21T22:50:17.937Z,10.60
2023-03-21T22:52:44.544Z,10.70
2023-03-21T22:55:12.730Z,10.70
2023-03-21T22:57:39.331Z,10.70
2023-03-21T23:00:14.328Z,10.80
2023-03-21T23:02:42.517Z,10.70
2023-03-21T23:05:10.268Z,10.70
2023-03-21T23:07:37.241Z,10.60
2023-03-21T23:10:05.101Z,10.60
2023-03-21T23:12:31.973Z,10.50
2023-03-21T23:14:58.612Z,10.60
2023-03-21T23:17:26.579Z,10.70
2023-03-21T23:19:53.132Z,10.70
2023-03-21T23:22:19.739Z,10.60
2023-03-21T23:24:46.970Z,10.60
2023-03-21T23:27:14.204Z,10.70
2023-03-21T23:29:40.814Z,10.60
2023-03-21T23:32:07.375Z,10.60
2023-03-21T23:34:34.044Z,10.60
2023-03-21T23:37:00.753Z,10.60
2023-03-21T23:39:28.236Z,10.60
2023-03-21T23:41:54.992Z,10.60
2023-03-21T23:44:21.551Z,10.90
2023-03-21T23:46:48.103Z,10.60
2023-03-21T23:49:15.389Z,10.60
2023-03-21T23:51:42.174Z,10.50
2023-03-21T23:54:09.207Z,10.60
2023-03-21T23:56:36.396Z,10.50
2023-03-21T23:59:03.434Z,10.40
